Time;durP1;ratioP1;P1;durP2;ratioP2;P2;SDS_P1;SDS_P2;PMS_P1;PMS_P2;Temp;Humidity;BMP_temperature;BMP_pressure;BME280_temperature;BME280_humidity;BME280_pressure;Samples;Min_cycle;Max_cycle;Signal;HPM_P1;HPM_P2
2022/10/18 00:01:39;;;;;;;34.55;19.35;;;10.80;99.90;;;;;;5016637;28;20088;-77
2022/10/18 00:04:05;;;;;;;31.98;19.75;;;10.80;99.90;;;;;;5033699;28;20025;-77
2022/10/18 00:06:30;;;;;;;31.17;19.15;;;10.70;99.90;;;;;;5034080;28;20499;-77
2022/10/18 00:08:56;;;;;;;35.10;20.63;;;10.70;99.90;;;;;;5033649;28;20485;-77
2022/10/18 00:11:21;;;;;;;37.78;19.30;;;10.70;99.90;;;;;;5034044;28;20445;-77
2022/10/18 00:13:47;;;;;;;34.10;20.60;;;10.60;99.90;;;;;;5033626;28;20061;-77
2022/10/18 00:16:17;;;;;;;38.67;20.23;;;10.60;99.90;;;;;;5034046;28;20374;-77
2022/10/18 00:18:44;;;;;;;35.20;20.52;;;10.60;99.90;;;;;;5017640;28;20452;-78
2022/10/18 00:21:16;;;;;;;31.52;20.00;;;10.50;99.90;;;;;;5018233;28;20079;-77
2022/10/18 00:23:41;;;;;;;30.98;19.45;;;10.50;99.90;;;;;;5035423;28;20029;-77
2022/10/18 00:26:12;;;;;;;48.53;21.88;;;10.40;99.90;;;;;;5035949;28;20052;-77
2022/10/18 00:28:38;;;;;;;40.13;20.65;;;10.40;99.90;;;;;;5035818;28;20037;-77
2022/10/18 00:31:14;;;;;;;34.08;21.05;;;10.40;99.90;;;;;;5036597;28;20029;-77
2022/10/18 00:33:42;;;;;;;40.03;20.92;;;10.30;99.90;;;;;;5020568;28;20033;-77
2022/10/18 00:36:08;;;;;;;31.83;20.07;;;10.30;99.90;;;;;;5023459;28;20030;-77
2022/10/18 00:38:34;;;;;;;44.20;21.45;;;10.30;99.90;;;;;;5041315;28;20029;-77
2022/10/18 00:40:59;;;;;;;31.08;19.70;;;10.30;99.90;;;;;;5022911;28;20076;-78
2022/10/18 00:43:25;;;;;;;37.88;21.02;;;10.30;99.90;;;;;;5040568;28;20499;-78
2022/10/18 00:45:51;;;;;;;34.13;20.50;;;10.20;99.90;;;;;;5022890;28;20515;-76
2022/10/18 00:48:18;;;;;;;34.63;21.75;;;10.20;99.90;;;;;;5022760;28;20553;-77
2022/10/18 00:50:45;;;;;;;35.70;21.13;;;10.20;99.90;;;;;;5040640;28;20100;-77
2022/10/18 00:53:18;;;;;;;34.95;21.45;;;10.20;99.90;;;;;;5040164;28;20029;-77
2022/10/18 00:55:44;;;;;;;34.85;20.85;;;10.10;99.90;;;;;;5040654;28;20389;-77
2022/10/18 00:58:12;;;;;;;38.47;22.77;;;10.10;99.90;;;;;;5041042;28;20025;-77
2022/10/18 01:00:39;;;;;;;32.90;20.98;;;10.10;99.90;;;;;;5023688;28;20028;-77
2022/10/18 01:03:06;;;;;;;39.17;21.00;;;10.10;99.90;;;;;;5041584;28;20025;-77
2022/10/18 01:05:34;;;;;;;30.70;21.27;;;10.00;99.90;;;;;;5024755;28;20029;-77
2022/10/18 01:08:34;;;;;;;38.27;21.37;;;10.00;99.90;;;;;;5024595;28;20033;-77
2022/10/18 01:11:31;;;;;;;39.13;22.83;;;10.00;99.90;;;;;;5003256;28;20274;-77
2022/10/18 01:14:07;;;;;;;34.60;20.75;;;9.90;99.90;;;;;;4991370;28;20046;-77
2022/10/18 01:16:38;;;;;;;34.55;21.33;;;9.90;99.90;;;;;;5001319;28;20026;-77
2022/10/18 01:19:25;;;;;;;35.20;22.23;;;9.90;99.90;;;;;;5003714;28;20049;-77
2022/10/18 01:21:56;;;;;;;36.70;21.40;;;9.90;99.90;;;;;;5001632;28;20113;-77
2022/10/18 01:24:58;;;;;;;43.55;22.73;;;9.80;99.90;;;;;;5002340;28;20374;-77
2022/10/18 01:27:39;;;;;;;34.33;20.98;;;9.80;99.90;;;;;;5001762;28;20089;-78
2022/10/18 01:30:19;;;;;;;39.80;21.42;;;9.80;99.90;;;;;;5002454;28;20046;-77
2022/10/18 01:32:50;;;;;;;37.50;21.83;;;9.80;99.90;;;;;;5000918;28;20463;-77
2022/10/18 01:35:23;;;;;;;31.50;20.40;;;9.70;99.90;;;;;;5001348;28;20042;-77
2022/10/18 01:37:50;;;;;;;36.22;22.13;;;9.70;99.90;;;;;;5002582;28;20493;-77
2022/10/18 01:40:19;;;;;;;39.60;22.27;;;9.70;99.90;;;;;;5000799;28;20041;-77
2022/10/18 01:42:47;;;;;;;34.92;21.98;;;9.70;99.90;;;;;;5001299;28;20130;-77
2022/10/18 01:45:15;;;;;;;37.75;21.52;;;9.60;99.90;;;;;;4999421;28;20486;-77
2022/10/18 01:47:43;;;;;;;34.58;22.10;;;9.60;99.90;;;;;;4999783;28;20125;-77
2022/10/18 01:50:09;;;;;;;34.65;21.35;;;9.60;99.90;;;;;;5000256;28;20076;-77
2022/10/18 01:52:34;;;;;;;32.88;21.13;;;9.60;99.90;;;;;;4999456;28;20478;-78
2022/10/18 01:55:02;;;;;;;34.00;21.08;;;9.50;99.90;;;;;;5002338;28;20109;-77
2022/10/18 01:57:37;;;;;;;38.10;23.10;;;9.60;99.90;;;;;;5001104;28;20548;-78
2022/10/18 02:00:13;;;;;;;36.55;21.17;;;9.50;99.90;;;;;;4999695;28;20058;-77
2022/10/18 02:02:46;;;;;;;30.92;19.35;;;9.50;99.90;;;;;;5000438;28;20029;-77
2022/10/18 02:05:29;;;;;;;36.70;21.25;;;9.50;99.90;;;;;;5000244;28;20027;-77
2022/10/18 02:08:29;;;;;;;35.45;20.98;;;9.40;99.90;;;;;;4999768;28;20034;-77
2022/10/18 02:11:07;;;;;;;31.23;20.85;;;9.40;99.90;;;;;;4998956;28;20046;-77
2022/10/18 02:13:39;;;;;;;35.22;21.42;;;9.40;99.90;;;;;;4998028;28;20033;-78
2022/10/18 02:16:09;;;;;;;34.80;21.67;;;9.40;99.90;;;;;;4999057;28;20033;-78
2022/10/18 02:18:53;;;;;;;32.28;21.33;;;9.40;99.90;;;;;;4997159;28;20026;-77
2022/10/18 02:21:21;;;;;;;34.30;21.73;;;9.40;99.90;;;;;;4998631;28;20026;-78
2022/10/18 02:23:47;;;;;;;39.45;22.27;;;9.40;99.90;;;;;;4996865;28;20027;-77
2022/10/18 02:26:14;;;;;;;35.00;21.98;;;9.40;99.90;;;;;;4996793;28;20042;-78
2022/10/18 02:28:42;;;;;;;32.83;20.75;;;9.30;99.90;;;;;;4996821;28;20045;-77
2022/10/18 02:31:07;;;;;;;40.80;22.60;;;9.30;99.90;;;;;;4997942;28;20375;-77
2022/10/18 02:33:44;;;;;;;39.55;21.15;;;9.20;99.90;;;;;;4997993;28;20026;-78
2022/10/18 02:36:21;;;;;;;34.38;20.30;;;9.20;99.90;;;;;;4997408;28;20026;-77
2022/10/18 02:38:49;;;;;;;30.90;20.85;;;9.20;99.90;;;;;;4998478;28;20042;-78
2022/10/18 02:41:23;;;;;;;36.25;20.50;;;9.10;99.90;;;;;;4998696;28;20022;-77
2022/10/18 02:43:48;;;;;;;33.15;20.80;;;9.10;99.90;;;;;;4996641;28;20097;-77
2022/10/18 02:46:14;;;;;;;37.00;20.98;;;9.10;99.90;;;;;;4995938;28;20451;-78
2022/10/18 02:48:40;;;;;;;38.90;21.17;;;9.10;99.90;;;;;;4996855;28;20113;-77
2022/10/18 02:51:06;;;;;;;36.17;20.95;;;9.10;99.90;;;;;;4995114;28;20462;-77
2022/10/18 02:53:31;;;;;;;41.42;22.90;;;9.00;99.90;;;;;;5012812;28;20095;-77
2022/10/18 02:55:57;;;;;;;36.83;22.67;;;9.00;99.90;;;;;;4996336;28;20026;-77
2022/10/18 02:58:22;;;;;;;35.22;22.15;;;9.00;99.90;;;;;;4996782;28;20134;-77
2022/10/18 03:00:51;;;;;;;39.28;21.48;;;9.00;99.90;;;;;;4996219;28;20348;-78
2022/10/18 03:03:17;;;;;;;33.67;20.58;;;9.00;99.90;;;;;;5011794;28;20041;-77
2022/10/18 03:05:42;;;;;;;39.15;22.85;;;9.00;99.90;;;;;;4995242;28;20030;-77
2022/10/18 03:08:08;;;;;;;32.88;22.25;;;8.90;99.90;;;;;;4995630;28;20033;-77
2022/10/18 03:10:33;;;;;;;38.33;21.52;;;8.90;99.90;;;;;;5035317;28;20029;-77
2022/10/18 03:12:59;;;;;;;37.00;22.77;;;8.90;99.90;;;;;;5018639;28;20022;-77
2022/10/18 03:15:25;;;;;;;38.30;22.90;;;8.90;99.90;;;;;;5017752;28;20454;-77
2022/10/18 03:17:50;;;;;;;41.63;22.98;;;8.90;99.90;;;;;;5017461;28;20025;-78
2022/10/18 03:20:16;;;;;;;37.10;23.30;;;8.90;99.90;;;;;;5016892;28;20022;-77
2022/10/18 03:22:42;;;;;;;36.90;23.75;;;8.90;99.90;;;;;;5035260;28;20472;-77
2022/10/18 03:25:07;;;;;;;38.15;22.70;;;8.90;99.90;;;;;;5017291;28;20025;-77
2022/10/18 03:27:33;;;;;;;42.00;25.10;;;8.80;99.90;;;;;;5034772;28;20052;-78
2022/10/18 03:29:59;;;;;;;36.65;22.75;;;8.80;99.90;;;;;;5034820;28;20029;-77
2022/10/18 03:32:25;;;;;;;34.38;22.00;;;8.80;99.90;;;;;;5035695;28;20033;-77
2022/10/18 03:34:51;;;;;;;36.30;22.88;;;8.80;99.90;;;;;;5035166;28;20036;-78
2022/10/18 03:37:16;;;;;;;38.75;23.52;;;8.80;99.90;;;;;;5034979;28;20060;-77
2022/10/18 03:39:42;;;;;;;36.58;22.83;;;8.70;99.90;;;;;;5017237;28;20034;-77
2022/10/18 03:42:07;;;;;;;42.05;22.55;;;8.80;99.90;;;;;;5035556;28;20025;-77
2022/10/18 03:44:33;;;;;;;40.28;23.13;;;8.70;99.90;;;;;;5035517;28;20562;-77
2022/10/18 03:46:59;;;;;;;46.65;23.95;;;8.70;99.90;;;;;;5035846;28;20033;-78
2022/10/18 03:49:24;;;;;;;35.45;23.13;;;8.70;99.90;;;;;;5035422;28;20029;-77
2022/10/18 03:51:50;;;;;;;37.60;22.58;;;8.70;99.90;;;;;;5017726;28;20389;-77
2022/10/18 03:54:15;;;;;;;46.42;24.48;;;8.70;99.90;;;;;;5035060;28;20465;-77
2022/10/18 03:56:41;;;;;;;40.67;24.08;;;8.70;99.90;;;;;;5034639;28;20041;-78
2022/10/18 03:59:07;;;;;;;36.08;22.83;;;8.60;99.90;;;;;;5016675;28;20025;-78
2022/10/18 04:01:32;;;;;;;45.13;23.58;;;8.60;99.90;;;;;;5016428;28;20033;-77
2022/10/18 04:03:58;;;;;;;44.92;23.08;;;8.60;99.90;;;;;;5034194;28;20028;-78
2022/10/18 04:06:23;;;;;;;38.17;20.77;;;8.60;99.90;;;;;;5033903;28;20119;-77
2022/10/18 04:08:49;;;;;;;40.30;23.13;;;8.60;99.90;;;;;;5018051;28;20145;-81
2022/10/18 04:11:15;;;;;;;43.75;24.48;;;8.50;99.90;;;;;;5038777;28;20056;-78
2022/10/18 04:13:40;;;;;;;34.15;23.58;;;8.50;99.90;;;;;;5022001;28;20029;-81
2022/10/18 04:16:06;;;;;;;36.03;22.13;;;8.50;99.90;;;;;;5044318;28;20381;-80
2022/10/18 04:18:32;;;;;;;34.70;22.75;;;8.50;99.90;;;;;;5044199;28;20108;-82
2022/10/18 04:20:57;;;;;;;39.50;23.45;;;8.50;99.90;;;;;;5043015;28;20025;-83
2022/10/18 04:23:23;;;;;;;42.97;23.20;;;8.50;99.90;;;;;;5026730;28;20052;-82
2022/10/18 04:25:49;;;;;;;36.13;23.20;;;8.50;99.90;;;;;;5026392;28;20088;-79
2022/10/18 04:28:15;;;;;;;34.80;21.17;;;8.50;99.90;;;;;;5042020;28;20037;-80
2022/10/18 04:30:40;;;;;;;36.85;22.90;;;8.40;99.90;;;;;;5025740;28;20032;-83
2022/10/18 04:33:06;;;;;;;39.65;23.92;;;8.40;99.90;;;;;;5041001;28;20113;-78
2022/10/18 04:35:32;;;;;;;40.97;23.15;;;8.40;99.90;;;;;;5038422;28;20053;-79
2022/10/18 04:37:57;;;;;;;34.67;22.40;;;8.40;99.90;;;;;;5022310;28;20065;-78
2022/10/18 04:40:23;;;;;;;36.58;22.75;;;8.40;99.90;;;;;;5022297;28;20179;-78
2022/10/18 04:42:49;;;;;;;41.50;22.98;;;8.40;99.90;;;;;;5038291;28;20030;-79
2022/10/18 04:45:14;;;;;;;37.80;23.08;;;8.40;99.90;;;;;;5040910;28;20072;-79
2022/10/18 04:47:40;;;;;;;39.63;22.80;;;8.40;99.90;;;;;;5039683;28;20029;-77
2022/10/18 04:50:06;;;;;;;41.22;24.48;;;8.30;99.90;;;;;;5023411;28;20037;-78
2022/10/18 04:52:32;;;;;;;41.00;24.05;;;8.30;99.90;;;;;;5041326;28;20022;-81
2022/10/18 04:54:57;;;;;;;35.92;22.95;;;8.30;99.90;;;;;;5023473;28;20033;-80
2022/10/18 04:57:23;;;;;;;40.17;22.88;;;8.30;99.90;;;;;;5040278;28;20104;-79
2022/10/18 04:59:48;;;;;;;37.53;23.85;;;8.30;99.90;;;;;;5023311;28;20033;-78
2022/10/18 05:02:14;;;;;;;43.10;22.27;;;8.30;99.90;;;;;;5040761;28;20030;-78
2022/10/18 05:04:40;;;;;;;42.83;22.40;;;8.30;99.90;;;;;;5028330;28;20029;-80
2022/10/18 05:07:05;;;;;;;40.05;24.13;;;8.30;99.90;;;;;;5048968;28;20033;-80
2022/10/18 05:09:32;;;;;;;38.42;22.58;;;8.30;99.90;;;;;;5041356;28;20092;-78
2022/10/18 05:11:57;;;;;;;40.10;22.95;;;8.30;99.90;;;;;;5038867;28;20038;-79
2022/10/18 05:14:23;;;;;;;42.42;23.38;;;8.30;99.90;;;;;;5045369;28;20057;-80
2022/10/18 05:16:49;;;;;;;38.75;22.33;;;8.30;99.90;;;;;;5025934;28;20116;-80
2022/10/18 05:19:14;;;;;;;39.47;23.55;;;8.20;99.90;;;;;;5022734;28;20038;-80
2022/10/18 05:21:40;;;;;;;38.55;23.02;;;8.20;99.90;;;;;;5039875;28;20461;-79
2022/10/18 05:24:06;;;;;;;39.17;23.50;;;8.20;99.90;;;;;;5039889;28;20104;-77
2022/10/18 05:26:31;;;;;;;40.60;22.33;;;8.20;99.90;;;;;;5027437;28;20049;-80
2022/10/18 05:28:57;;;;;;;41.08;23.08;;;8.20;99.90;;;;;;5028458;28;20036;-80
2022/10/18 05:31:23;;;;;;;34.78;21.30;;;8.20;99.90;;;;;;5045955;28;20025;-79
2022/10/18 05:33:48;;;;;;;36.38;22.63;;;8.20;99.90;;;;;;5043299;28;20125;-76
2022/10/18 05:36:14;;;;;;;42.55;22.33;;;8.20;99.90;;;;;;5024530;28;20057;-78
2022/10/18 05:38:41;;;;;;;38.53;22.38;;;8.20;99.90;;;;;;5052334;28;20033;-78
2022/10/18 05:41:07;;;;;;;46.08;22.80;;;8.20;99.90;;;;;;5025749;28;20035;-76
2022/10/18 05:43:33;;;;;;;38.10;21.75;;;8.20;99.90;;;;;;5041359;28;20029;-76
2022/10/18 05:45:58;;;;;;;39.05;22.02;;;8.30;99.90;;;;;;5024533;28;20030;-76
2022/10/18 05:48:25;;;;;;;41.22;22.05;;;8.30;99.90;;;;;;5040397;28;20090;-77
2022/10/18 05:50:51;;;;;;;35.30;21.77;;;8.30;99.90;;;;;;5041227;28;20445;-79
2022/10/18 05:53:17;;;;;;;36.03;21.60;;;8.30;99.90;;;;;;5039624;28;20057;-76
2022/10/18 05:55:42;;;;;;;35.83;23.17;;;8.30;99.90;;;;;;5040228;28;20027;-76
2022/10/18 05:58:08;;;;;;;37.88;22.45;;;8.30;99.90;;;;;;5024309;28;20032;-77
2022/10/18 06:00:34;;;;;;;34.47;21.40;;;8.40;99.90;;;;;;5039707;28;20537;-77
2022/10/18 06:03:00;;;;;;;38.35;22.88;;;8.40;99.90;;;;;;5021559;28;20116;-77
2022/10/18 06:05:26;;;;;;;41.05;21.50;;;8.50;99.90;;;;;;5021293;28;20064;-76
2022/10/18 06:07:52;;;;;;;33.65;21.70;;;8.50;99.90;;;;;;5039914;28;20029;-76
2022/10/18 06:10:17;;;;;;;32.72;19.58;;;8.50;99.90;;;;;;5021462;28;20056;-75
2022/10/18 06:12:43;;;;;;;33.38;22.20;;;8.50;99.90;;;;;;5039056;28;20025;-75
2022/10/18 06:15:09;;;;;;;30.67;21.42;;;8.50;99.90;;;;;;5021456;28;20419;-75
2022/10/18 06:17:34;;;;;;;38.70;22.63;;;8.50;99.90;;;;;;5021601;28;20101;-75
2022/10/18 06:20:00;;;;;;;37.38;21.65;;;8.50;99.90;;;;;;5021510;28;20409;-74
2022/10/18 06:22:26;;;;;;;33.88;20.90;;;8.60;99.90;;;;;;5039267;28;20025;-76
2022/10/18 06:24:51;;;;;;;31.88;21.30;;;8.60;99.90;;;;;;5022779;28;20084;-75
2022/10/18 06:27:17;;;;;;;32.65;21.27;;;8.70;99.90;;;;;;5022456;28;20037;-76
2022/10/18 06:29:42;;;;;;;36.00;22.98;;;8.80;99.90;;;;;;5039368;28;20025;-75
2022/10/18 06:32:09;;;;;;;29.60;20.60;;;8.90;99.90;;;;;;5020469;28;20083;-76
2022/10/18 06:34:34;;;;;;;35.15;21.60;;;9.00;99.90;;;;;;5038188;28;20465;-76
2022/10/18 06:37:00;;;;;;;33.88;21.17;;;9.20;99.90;;;;;;5020042;28;20079;-75
2022/10/18 06:39:26;;;;;;;31.02;20.52;;;9.40;99.90;;;;;;5037018;28;20094;-75
2022/10/18 06:41:52;;;;;;;36.42;20.25;;;9.50;99.90;;;;;;5020203;28;20044;-76
2022/10/18 06:44:18;;;;;;;31.48;20.63;;;9.60;99.90;;;;;;5019645;28;20457;-76
2022/10/18 06:46:46;;;;;;;29.58;18.63;;;9.80;99.90;;;;;;5017785;28;20473;-77
2022/10/18 06:49:13;;;;;;;32.10;18.65;;;9.90;99.90;;;;;;5017107;28;20029;-76
2022/10/18 06:51:41;;;;;;;27.10;17.88;;;10.10;99.90;;;;;;5016820;28;20113;-76
2022/10/18 06:54:08;;;;;;;32.45;17.42;;;10.30;99.90;;;;;;5017729;28;20033;-76
2022/10/18 06:56:34;;;;;;;29.00;17.67;;;10.40;99.90;;;;;;5034626;28;20037;-76
2022/10/18 06:59:00;;;;;;;24.55;16.65;;;10.50;99.90;;;;;;5016757;28;20026;-75
2022/10/18 07:01:27;;;;;;;26.25;16.65;;;10.80;99.90;;;;;;5016820;28;20536;-78
2022/10/18 07:03:53;;;;;;;26.50;16.58;;;11.00;99.90;;;;;;5034411;28;20028;-78
2022/10/18 07:06:20;;;;;;;23.85;16.00;;;11.30;99.90;;;;;;5034019;28;20032;-78
2022/10/18 07:08:47;;;;;;;22.20;14.05;;;11.60;99.90;;;;;;5016434;28;20444;-76
2022/10/18 07:11:16;;;;;;;22.33;14.38;;;11.90;99.90;;;;;;5034150;28;20021;-77
2022/10/18 07:13:42;;;;;;;22.40;15.13;;;12.20;99.90;;;;;;5016390;28;20025;-77
2022/10/18 07:16:10;;;;;;;29.05;15.02;;;12.50;99.90;;;;;;5016319;28;20525;-78
2022/10/18 07:18:38;;;;;;;23.77;14.10;;;12.90;99.90;;;;;;5016265;28;20036;-79
2022/10/18 07:21:06;;;;;;;20.17;13.60;;;13.30;99.90;;;;;;5034027;28;20346;-77
2022/10/18 07:23:33;;;;;;;26.90;14.40;;;13.60;99.90;;;;;;5016236;28;20083;-77
2022/10/18 07:26:00;;;;;;;22.27;12.63;;;14.00;99.90;;;;;;5033631;28;20052;-78
2022/10/18 07:28:27;;;;;;;18.42;12.50;;;14.30;99.90;;;;;;5016375;28;20034;-78
2022/10/18 07:30:52;;;;;;;18.55;12.35;;;14.50;99.90;;;;;;5016190;28;20381;-77
2022/10/18 07:33:19;;;;;;;19.48;12.82;;;14.80;99.90;;;;;;5033930;28;20036;-79
2022/10/18 07:35:46;;;;;;;20.50;12.82;;;15.10;99.90;;;;;;5033868;28;20026;-79
2022/10/18 07:38:12;;;;;;;21.40;11.63;;;15.30;99.90;;;;;;5016238;28;20061;-79
2022/10/18 07:40:37;;;;;;;20.65;12.55;;;15.70;99.90;;;;;;5016181;28;20060;-77
2022/10/18 07:43:03;;;;;;;16.75;11.27;;;16.20;99.90;;;;;;5033989;28;20072;-77
2022/10/18 07:45:29;;;;;;;16.85;11.75;;;16.50;99.90;;;;;;5016082;28;20022;-78
2022/10/18 07:47:56;;;;;;;17.27;12.27;;;16.90;99.90;;;;;;5016421;28;20033;-78
2022/10/18 07:50:22;;;;;;;21.90;11.55;;;17.30;99.90;;;;;;5033784;28;20088;-78
2022/10/18 07:52:48;;;;;;;19.08;11.35;;;17.60;99.90;;;;;;5015967;28;20025;-77
2022/10/18 07:55:13;;;;;;;19.42;11.63;;;17.90;99.90;;;;;;5033628;28;20171;-76
2022/10/18 07:57:39;;;;;;;26.85;11.77;;;18.20;99.90;;;;;;5016099;28;20124;-79
2022/10/18 08:00:07;;;;;;;18.13;11.10;;;18.30;99.90;;;;;;5033943;28;20032;-78
2022/10/18 08:02:33;;;;;;;16.60;10.50;;;18.50;99.90;;;;;;5015960;28;20060;-79
2022/10/18 08:04:59;;;;;;;20.45;11.05;;;18.60;99.90;;;;;;5015688;28;20103;-78
2022/10/18 08:07:25;;;;;;;19.13;11.75;;;18.70;99.90;;;;;;5015497;28;20176;-78
2022/10/18 08:09:50;;;;;;;18.95;11.27;;;18.80;99.90;;;;;;5033580;28;20041;-78
2022/10/18 08:12:16;;;;;;;17.70;11.00;;;18.90;99.90;;;;;;5015484;28;20040;-78
2022/10/18 08:14:41;;;;;;;13.68;10.35;;;19.20;99.90;;;;;;5015912;28;20033;-78
2022/10/18 08:17:07;;;;;;;17.30;10.45;;;19.20;99.90;;;;;;5015800;28;20411;-77
2022/10/18 08:19:33;;;;;;;19.08;10.23;;;19.40;99.90;;;;;;5033683;28;20183;-78
2022/10/18 08:21:58;;;;;;;21.45;10.68;;;19.70;99.90;;;;;;5033310;28;20071;-78
2022/10/18 08:24:24;;;;;;;16.63;10.25;;;19.90;99.40;;;;;;5033932;28;20354;-77
2022/10/18 08:26:50;;;;;;;20.77;11.32;;;20.10;98.80;;;;;;5015661;28;20504;-78
2022/10/18 08:29:16;;;;;;;20.73;11.18;;;20.00;98.00;;;;;;5033590;28;20037;-78
2022/10/18 08:31:41;;;;;;;15.48;9.80;;;20.20;97.00;;;;;;5033606;28;20030;-78
2022/10/18 08:34:07;;;;;;;20.35;10.57;;;20.20;97.40;;;;;;5033112;28;20025;-79
2022/10/18 08:36:32;;;;;;;16.25;10.63;;;20.50;96.60;;;;;;5033501;28;20025;-78
2022/10/18 08:38:58;;;;;;;12.77;9.15;;;20.70;96.00;;;;;;5015503;28;20116;-78
2022/10/18 08:41:36;;;;;;;17.40;9.85;;;20.70;94.70;;;;;;5015513;28;20069;-78
2022/10/18 08:44:08;;;;;;;13.52;9.38;;;20.90;95.20;;;;;;5016009;28;20386;-78
2022/10/18 08:46:36;;;;;;;16.85;10.07;;;20.90;94.60;;;;;;5033478;28;20029;-78
2022/10/18 08:49:03;;;;;;;13.88;10.27;;;21.00;93.30;;;;;;5033163;28;20112;-77
2022/10/18 08:51:42;;;;;;;16.77;10.52;;;21.50;93.20;;;;;;5015464;28;20030;-78
2022/10/18 08:54:16;;;;;;;;;;;22.20;92.10;;;;;;5016121;28;20026;-79
2022/10/18 08:56:46;;;;;;;17.88;10.70;;;22.80;90.60;;;;;;5019373;28;19905;-80
2022/10/18 08:59:12;;;;;;;19.13;10.30;;;23.20;87.60;;;;;;5019229;28;20033;-80
2022/10/18 09:01:39;;;;;;;17.60;10.55;;;23.60;83.90;;;;;;5018769;28;20034;-80
2022/10/18 09:04:08;;;;;;;16.75;11.23;;;23.50;83.40;;;;;;5036731;28;20021;-80
2022/10/18 09:06:54;;;;;;;19.10;10.18;;;23.40;82.20;;;;;;5036703;28;20097;-81
2022/10/18 09:09:38;;;;;;;16.05;10.77;;;23.20;81.80;;;;;;5036548;28;20125;-80
2022/10/18 09:12:42;;;;;;;22.25;12.00;;;23.70;80.30;;;;;;5019015;28;20072;-80
2022/10/18 09:15:19;;;;;;;17.88;12.63;;;23.70;80.10;;;;;;5018749;28;20018;-81
2022/10/18 09:18:05;;;;;;;16.95;12.27;;;23.90;79.20;;;;;;5036655;28;20112;-81
2022/10/18 09:20:44;;;;;;;16.92;11.20;;;24.20;79.20;;;;;;5018836;28;20406;-81
2022/10/18 09:23:15;;;;;;;16.15;11.43;;;24.50;76.70;;;;;;5036561;28;20025;-81
2022/10/18 09:25:59;;;;;;;18.58;11.55;;;24.70;74.90;;;;;;5036353;28;20026;-80
2022/10/18 09:28:40;;;;;;;21.80;12.05;;;24.60;74.60;;;;;;5018276;28;20572;-60
2022/10/18 09:31:19;;;;;;;16.35;11.23;;;25.10;73.60;;;;;;5035902;28;20109;-60
2022/10/18 09:33:54;;;;;;;16.70;11.43;;;25.00;72.90;;;;;;5036323;28;20045;-60
2022/10/18 09:36:25;;;;;;;25.58;11.45;;;24.70;72.40;;;;;;5036216;28;20022;-60
2022/10/18 09:38:55;;;;;;;17.55;10.65;;;24.90;72.50;;;;;;5018187;28;20474;-60
2022/10/18 09:41:52;;;;;;;18.33;10.82;;;25.00;72.20;;;;;;5018303;28;20108;-60
2022/10/18 09:44:24;;;;;;;15.60;10.90;;;24.40;71.60;;;;;;5001276;28;20038;-60
2022/10/18 09:46:58;;;;;;;17.63;10.93;;;24.60;72.00;;;;;;5035909;28;20484;-60
2022/10/18 09:49:48;;;;;;;16.55;11.60;;;24.60;70.60;;;;;;5035639;28;20052;-60
2022/10/18 09:52:27;;;;;;;17.70;11.02;;;24.30;71.20;;;;;;5001335;28;20042;-60
2022/10/18 09:55:00;;;;;;;16.90;11.40;;;24.50;71.80;;;;;;5035715;28;20035;-60
2022/10/18 09:57:39;;;;;;;17.13;10.50;;;24.70;70.50;;;;;;5035877;28;20133;-60
2022/10/18 10:00:13;;;;;;;16.88;11.43;;;25.00;69.40;;;;;;5035785;28;20025;-61
2022/10/18 10:02:38;;;;;;;20.30;11.75;;;25.50;67.00;;;;;;5035645;28;20036;-60
2022/10/18 10:05:08;;;;;;;18.73;10.35;;;25.40;67.00;;;;;;5035472;28;20025;-60
2022/10/18 10:07:46;;;;;;;18.48;10.95;;;25.00;66.50;;;;;;5016540;28;20076;-60
2022/10/18 10:10:26;;;;;;;14.00;10.95;;;24.70;67.50;;;;;;5035487;28;20037;-60
2022/10/18 10:13:14;;;;;;;16.38;10.02;;;24.30;67.50;;;;;;5035500;28;20088;-60
2022/10/18 10:15:45;;;;;;;15.97;10.20;;;24.20;68.30;;;;;;5035271;28;20025;-59
2022/10/18 10:18:22;;;;;;;16.63;10.45;;;24.40;67.80;;;;;;5017240;28;20021;-60
2022/10/18 10:20:51;;;;;;;15.05;9.50;;;24.40;66.80;;;;;;5035130;28;20021;-60
2022/10/18 10:23:29;;;;;;;15.85;10.30;;;24.60;68.40;;;;;;5017543;28;20389;-60
2022/10/18 10:25:58;;;;;;;17.17;10.13;;;24.80;67.60;;;;;;5035133;28;20346;-60
2022/10/18 10:28:42;;;;;;;15.18;9.80;;;24.80;66.00;;;;;;5035013;28;20477;-60
2022/10/18 10:31:23;;;;;;;17.27;10.82;;;24.90;66.90;;;;;;5035288;28;20108;-59
2022/10/18 10:34:02;;;;;;;14.02;9.52;;;25.00;66.00;;;;;;5034647;28;20485;-60
2022/10/18 10:36:29;;;;;;;18.85;9.60;;;25.60;65.60;;;;;;5017164;28;20026;-60
2022/10/18 10:39:18;;;;;;;13.18;9.68;;;26.00;66.20;;;;;;5034831;28;20039;-60
2022/10/18 10:41:52;;;;;;;15.05;9.10;;;26.50;62.80;;;;;;5035211;28;20036;-60
2022/10/18 10:44:21;;;;;;;20.08;10.02;;;26.80;62.60;;;;;;5034707;28;20108;-60
2022/10/18 10:46:48;;;;;;;;;;;27.40;61.80;;;;;;5035340;28;20017;-60
2022/10/18 10:49:36;;;;;;;16.75;8.75;;;27.80;60.70;;;;;;5034555;28;19927;-60
2022/10/18 10:52:03;;;;;;;;;;;27.60;59.50;;;;;;5021878;28;20042;-60
2022/10/18 10:54:35;;;;;;;12.63;8.77;;;27.00;59.70;;;;;;5034529;28;19912;-82
2022/10/18 10:57:09;;;;;;;20.42;9.18;;;26.90;60.90;;;;;;5017353;28;20358;-82
2022/10/18 10:59:53;;;;;;;17.30;9.35;;;27.50;59.70;;;;;;5017006;28;20037;-81
2022/10/18 11:02:29;;;;;;;17.92;9.73;;;28.10;57.40;;;;;;5017163;28;20032;-82
2022/10/18 11:05:13;;;;;;;12.27;8.85;;;27.80;57.80;;;;;;5034646;28;20025;-81
2022/10/18 11:07:42;;;;;;;17.40;9.68;;;28.40;57.10;;;;;;5016857;28;20038;-82
2022/10/18 11:10:08;;;;;;;14.80;9.05;;;28.70;56.50;;;;;;5034857;28;20046;-81
2022/10/18 11:12:41;;;;;;;13.48;9.68;;;29.00;55.70;;;;;;5034443;28;20495;-83
2022/10/18 11:15:12;;;;;;;11.63;9.50;;;29.50;54.20;;;;;;5017269;28;20036;-82
2022/10/18 11:17:38;;;;;;;12.40;9.38;;;29.60;53.40;;;;;;5034374;28;20076;-85
2022/10/18 11:20:10;;;;;;;17.23;9.43;;;29.50;52.90;;;;;;5016964;28;20029;-83
2022/10/18 11:22:50;;;;;;;9.90;8.85;;;29.20;53.60;;;;;;5034309;28;20025;-80
2022/10/18 11:25:16;;;;;;;12.70;9.30;;;28.90;54.20;;;;;;5016650;28;20079;-80
2022/10/18 11:28:00;;;;;;;12.30;8.73;;;28.60;54.20;;;;;;5034092;28;20076;-81
2022/10/18 11:30:55;;;;;;;13.02;7.40;;;28.90;54.20;;;;;;5016989;28;20029;-79
2022/10/18 11:33:25;;;;;;;14.80;8.63;;;29.20;56.40;;;;;;5016800;28;20075;-79
2022/10/18 11:35:54;;;;;;;13.45;8.80;;;30.00;52.80;;;;;;5033815;28;20028;-79
2022/10/18 11:38:41;;;;;;;14.57;8.95;;;30.50;51.80;;;;;;5033898;28;20088;-79
2022/10/18 11:41:30;;;;;;;13.77;8.70;;;30.50;52.30;;;;;;5033901;28;20026;-78
2022/10/18 11:44:00;;;;;;;18.63;8.82;;;30.30;54.10;;;;;;5016649;28;20342;-79
2022/10/18 11:47:04;;;;;;;13.05;9.38;;;30.80;51.90;;;;;;5033588;28;20051;-79
2022/10/18 11:49:48;;;;;;;14.57;9.35;;;29.70;50.10;;;;;;5016179;28;20412;-79
2022/10/18 11:52:38;;;;;;;24.73;9.85;;;29.00;51.70;;;;;;5016139;28;20026;-80
2022/10/18 11:55:26;;;;;;;12.50;8.10;;;29.50;53.50;;;;;;5033734;28;20030;-80
2022/10/18 11:57:54;;;;;;;11.45;8.07;;;30.50;53.20;;;;;;5016381;28;20033;-80
2022/10/18 12:00:20;;;;;;;;;;;30.70;52.50;;;;;;5034141;28;20026;-79
2022/10/18 12:03:09;;;;;;;10.88;7.50;;;31.00;52.50;;;;;;5033914;28;19996;-80
2022/10/18 12:05:38;;;;;;;11.00;8.07;;;31.30;51.80;;;;;;5015937;28;20040;-79
2022/10/18 12:08:08;;;;;;;8.57;7.45;;;31.30;52.20;;;;;;5033490;28;20033;-79
2022/10/18 12:10:35;;;;;;;12.00;7.72;;;31.30;51.30;;;;;;5015816;28;20095;-80
2022/10/18 12:13:04;;;;;;;15.90;7.57;;;31.10;51.30;;;;;;5015569;28;20029;-79
2022/10/18 12:15:35;;;;;;;11.07;6.75;;;30.70;51.10;;;;;;5033392;28;20473;-78
2022/10/18 12:18:15;;;;;;;8.38;7.18;;;30.60;51.80;;;;;;5033396;28;20469;-79
2022/10/18 12:20:48;;;;;;;8.30;6.28;;;30.80;50.80;;;;;;5016001;28;20022;-79
2022/10/18 12:23:28;;;;;;;8.85;6.60;;;30.90;51.10;;;;;;5015653;28;20036;-79
2022/10/18 12:25:59;;;;;;;7.63;6.28;;;30.40;50.50;;;;;;5015935;28;20079;-79
2022/10/18 12:29:06;;;;;;;7.32;5.60;;;29.90;50.40;;;;;;5033042;28;20034;-78
2022/10/18 12:31:38;;;;;;;7.85;5.28;;;29.90;51.20;;;;;;5003019;28;20045;-79
2022/10/18 12:34:22;;;;;;;10.50;5.78;;;30.30;50.20;;;;;;5037215;28;20079;-78
2022/10/18 12:37:01;;;;;;;6.07;5.47;;;30.50;49.70;;;;;;5019435;28;20037;-79
2022/10/18 12:39:32;;;;;;;12.85;5.78;;;30.20;49.60;;;;;;5037022;28;20025;-78
2022/10/18 12:41:58;;;;;;;6.97;5.68;;;29.10;51.30;;;;;;5037251;28;20029;-79
2022/10/18 12:44:32;;;;;;;7.85;5.65;;;28.90;52.10;;;;;;5019315;28;20029;-79
2022/10/18 12:47:03;;;;;;;7.97;5.47;;;29.20;52.30;;;;;;5036867;28;20026;-80
2022/10/18 12:49:31;;;;;;;8.48;5.88;;;29.50;51.50;;;;;;5019206;28;20033;-80
2022/10/18 12:52:00;;;;;;;8.82;6.38;;;29.30;52.20;;;;;;5036889;28;20026;-79